createdAt,value
2022-08-11T00:02:06.602Z,2.20
2022-08-11T00:04:44.871Z,1.70
2022-08-11T00:07:14.797Z,1.80
2022-08-11T00:09:44.573Z,1.90
2022-08-11T00:12:16.722Z,2.20
2022-08-11T00:14:46.583Z,2.20
2022-08-11T00:17:17.848Z,2.30
2022-08-11T00:20:11.969Z,2.10
2022-08-11T00:22:45.633Z,2.00
2022-08-11T00:25:17.496Z,1.80
2022-08-11T00:27:48.511Z,2.30
2022-08-11T00:30:20.596Z,2.40
2022-08-11T00:32:58.401Z,1.70
2022-08-11T00:35:54.864Z,1.80
2022-08-11T00:38:29.445Z,1.90
2022-08-11T00:41:08.646Z,1.90
2022-08-11T00:43:51.491Z,2.30
2022-08-11T00:46:35.594Z,2.00
2022-08-11T00:49:17.258Z,2.30
2022-08-11T00:52:05.736Z,2.60
2022-08-11T00:55:01.968Z,2.90
2022-08-11T00:57:56.875Z,2.80
2022-08-11T01:00:33.353Z,2.90
2022-08-11T01:03:31.307Z,3.40
2022-08-11T01:06:32.521Z,3.30
2022-08-11T01:09:33.360Z,3.40
2022-08-11T01:12:29.309Z,3.30
2022-08-11T01:15:30.620Z,3.30
2022-08-11T01:18:51.454Z,3.80
2022-08-11T01:22:11.654Z,4.20
2022-08-11T01:25:18.434Z,4.20
2022-08-11T01:28:28.072Z,5.10
2022-08-11T01:31:26.890Z,4.80
2022-08-11T01:34:30.775Z,4.80
2022-08-11T01:37:16.335Z,5.20
2022-08-11T01:40:14.936Z,4.60
2022-08-11T01:43:42.114Z,5.10
2022-08-11T01:46:17.967Z,4.20
2022-08-11T01:50:01.034Z,4.10
2022-08-11T01:52:15.276Z,4.30
2022-08-11T01:54:50.061Z,4.80
2022-08-11T02:00:11.426Z,4.60
2022-08-11T02:02:53.677Z,3.90
2022-08-11T02:05:34.065Z,3.70
2022-08-11T02:08:15.154Z,4.10
2022-08-11T02:11:12.779Z,4.20
2022-08-11T02:13:50.172Z,4.20
2022-08-11T02:16:36.368Z,4.50
2022-08-11T02:19:33.635Z,4.40
2022-08-11T02:22:27.376Z,4.40
2022-08-11T02:25:03.069Z,4.20
2022-08-11T02:27:41.126Z,4.80
2022-08-11T02:30:14.617Z,4.80
2022-08-11T02:33:12.042Z,4.70
2022-08-11T02:35:50.430Z,4.70
2022-08-11T02:38:28.132Z,4.50
2022-08-11T02:41:28.395Z,4.70
2022-08-11T02:44:15.507Z,4.60
2022-08-11T02:46:57.892Z,5.20
2022-08-11T02:50:02.608Z,5.60
2022-08-11T02:52:45.796Z,5.50
2022-08-11T02:55:50.978Z,5.00
2022-08-11T02:58:27.113Z,5.30
2022-08-11T03:01:06.862Z,5.30
2022-08-11T03:03:45.260Z,4.50
2022-08-11T03:06:27.239Z,5.20
2022-08-11T03:09:04.441Z,4.50
2022-08-11T03:12:11.200Z,4.50
2022-08-11T03:15:08.515Z,4.80
2022-08-11T03:17:50.549Z,4.00
2022-08-11T03:20:38.194Z,4.00
2022-08-11T03:25:58.852Z,4.00
2022-08-11T03:28:35.209Z,4.10
2022-08-11T03:31:19.443Z,4.20
2022-08-11T03:34:06.548Z,4.60
2022-08-11T03:37:58.256Z,4.80
2022-08-11T03:41:02.404Z,4.80
2022-08-11T03:43:50.318Z,4.10
2022-08-11T03:46:51.468Z,3.80
2022-08-11T03:49:35.574Z,3.40
2022-08-11T03:52:22.295Z,3.20
2022-08-11T03:55:02.369Z,3.20
2022-08-11T03:58:02.580Z,3.00
2022-08-11T04:00:56.237Z,3.30
2022-08-11T04:03:59.841Z,3.00
2022-08-11T04:07:05.898Z,3.30
2022-08-11T04:10:10.582Z,3.00
2022-08-11T04:13:14.255Z,3.30
2022-08-11T04:16:15.994Z,3.40
2022-08-11T04:19:34.224Z,3.50
2022-08-11T04:22:38.059Z,3.90
2022-08-11T04:25:57.453Z,3.90
2022-08-11T04:28:52.155Z,4.00
2022-08-11T04:31:49.563Z,4.20
2022-08-11T04:34:40.514Z,3.70
2022-08-11T04:44:31.307Z,4.40
2022-08-11T04:48:01.842Z,4.10
2022-08-11T04:51:17.478Z,3.70
2022-08-11T04:54:16.920Z,4.20
2022-08-11T04:57:07.095Z,4.30
2022-08-11T05:00:23.793Z,4.10
2022-08-11T05:03:30.981Z,3.70
2022-08-11T05:06:42.297Z,3.80
2022-08-11T05:09:47.223Z,3.50
2022-08-11T05:12:36.690Z,3.70
2022-08-11T05:15:30.516Z,3.30
2022-08-11T05:18:26.045Z,3.40
2022-08-11T05:21:21.555Z,3.40
2022-08-11T05:24:30.811Z,3.60
2022-08-11T05:27:23.853Z,4.10
2022-08-11T05:30:20.795Z,3.30
2022-08-11T05:33:17.088Z,4.10
2022-08-11T05:36:01.722Z,3.70
2022-08-11T05:38:54.372Z,3.40
2022-08-11T05:41:45.180Z,3.40
2022-08-11T05:44:39.930Z,3.40
2022-08-11T05:47:29.275Z,3.40
2022-08-11T05:50:17.588Z,2.80
2022-08-11T05:53:20.408Z,2.60
2022-08-11T05:56:10.397Z,2.70
2022-08-11T05:58:43.073Z,2.80
2022-08-11T06:01:21.901Z,2.80
2022-08-11T06:04:09.102Z,2.50
2022-08-11T06:07:01.401Z,3.00
2022-08-11T06:09:55.378Z,3.20
2022-08-11T06:12:32.591Z,3.00
2022-08-11T06:15:09.418Z,2.90
2022-08-11T06:17:52.827Z,2.70
2022-08-11T06:20:25.795Z,2.40
2022-08-11T06:23:03.114Z,2.50
2022-08-11T06:25:35.795Z,2.30
2022-08-11T06:28:20.343Z,2.70
2022-08-11T06:31:04.599Z,2.60
2022-08-11T06:33:43.981Z,2.40
2022-08-11T06:36:34.125Z,2.20
2022-08-11T06:39:21.100Z,2.00
2022-08-11T06:42:00.533Z,2.00
2022-08-11T06:44:39.375Z,2.50
2022-08-11T06:47:17.739Z,2.60
2022-08-11T06:50:11.049Z,2.30
2022-08-11T06:52:47.918Z,2.10
2022-08-11T06:55:58.063Z,2.10
2022-08-11T06:58:49.892Z,1.90
2022-08-11T07:01:37.329Z,2.30
2022-08-11T07:04:10.630Z,2.20
2022-08-11T07:07:36.832Z,2.50
2022-08-11T07:10:45.094Z,2.90
2022-08-11T07:13:44.212Z,2.50
2022-08-11T07:16:24.349Z,2.50
2022-08-11T07:19:19.688Z,2.50
2022-08-11T07:22:12.019Z,3.10
2022-08-11T07:25:03.466Z,2.40
2022-08-11T07:28:01.553Z,2.80
2022-08-11T07:30:32.996Z,2.40
2022-08-11T07:33:05.438Z,2.30
2022-08-11T07:35:39.002Z,2.20
2022-08-11T07:38:22.059Z,2.20
2022-08-11T07:40:53.019Z,2.20
2022-08-11T07:43:26.591Z,2.10
2022-08-11T07:46:15.689Z,2.30
2022-08-11T07:49:03.592Z,2.50
2022-08-11T07:51:51.434Z,2.30
2022-08-11T07:54:21.570Z,2.20
2022-08-11T07:56:54.709Z,2.00
2022-08-11T08:00:00.131Z,2.30
2022-08-11T08:02:53.742Z,1.90
2022-08-11T08:05:42.144Z,1.80
2022-08-11T08:08:33.573Z,1.90
2022-08-11T08:11:27.494Z,2.10
2022-08-11T08:14:15.855Z,2.10
2022-08-11T08:17:05.458Z,1.80
2022-08-11T08:19:43.000Z,2.20
2022-08-11T08:22:48.589Z,2.10
2022-08-11T08:25:20.226Z,1.80
2022-08-11T08:27:52.251Z,1.90
2022-08-11T08:30:43.163Z,2.20
2022-08-11T08:33:20.473Z,2.00
2022-08-11T08:36:12.317Z,2.10
2022-08-11T08:38:46.998Z,2.00
2022-08-11T08:41:22.328Z,2.00
2022-08-11T08:43:55.809Z,2.30
2022-08-11T08:46:39.004Z,2.10
2022-08-11T08:49:18.496Z,2.00
2022-08-11T08:52:30.883Z,1.90
2022-08-11T08:54:57.087Z,2.20
2022-08-11T09:00:20.718Z,1.90
2022-08-11T09:02:53.185Z,2.00
2022-08-11T09:05:25.465Z,1.90
2022-08-11T09:07:57.637Z,2.20
2022-08-11T09:10:29.908Z,2.30
2022-08-11T09:13:04.555Z,2.10
2022-08-11T09:15:43.738Z,2.00
2022-08-11T09:18:13.550Z,1.70
2022-08-11T09:20:43.952Z,1.80
2022-08-11T09:24:07.929Z,2.10
2022-08-11T09:26:42.512Z,2.00
2022-08-11T09:29:13.883Z,2.10
2022-08-11T09:31:46.159Z,1.80
2022-08-11T09:34:17.086Z,2.00
2022-08-11T09:37:11.112Z,1.90
2022-08-11T09:40:03.360Z,2.10
2022-08-11T09:42:58.516Z,2.20
2022-08-11T09:45:35.914Z,2.10
2022-08-11T09:53:03.539Z,2.00
2022-08-11T09:55:33.414Z,2.10
2022-08-11T09:58:33.165Z,2.00
2022-08-11T10:01:07.641Z,2.10
2022-08-11T10:03:42.122Z,1.80
2022-08-11T10:06:34.746Z,1.90
2022-08-11T10:09:07.649Z,2.00
2022-08-11T10:11:41.787Z,2.00
2022-08-11T10:14:33.816Z,2.10
2022-08-11T10:17:08.343Z,2.30
2022-08-11T10:20:05.962Z,1.90
2022-08-11T10:26:57.152Z,1.60
2022-08-11T10:29:54.111Z,2.70
2022-08-11T10:32:57.271Z,2.20
2022-08-11T10:35:32.765Z,2.00
2022-08-11T10:38:17.028Z,2.20
2022-08-11T10:41:10.811Z,2.10
2022-08-11T10:44:02.904Z,2.00
2022-08-11T10:46:58.748Z,2.20
2022-08-11T10:49:39.773Z,2.10
2022-08-11T10:52:29.422Z,1.90
2022-08-11T10:55:16.817Z,2.20
2022-08-11T10:58:06.848Z,2.10
2022-08-11T11:00:38.025Z,2.50
2022-08-11T11:03:22.343Z,2.10
2022-08-11T11:06:13.289Z,2.10
2022-08-11T11:08:57.678Z,2.00
2022-08-11T11:11:55.116Z,2.20
2022-08-11T11:14:58.317Z,1.70
2022-08-11T11:17:58.819Z,1.90
2022-08-11T11:20:38.386Z,2.00
2022-08-11T11:23:20.440Z,2.20
2022-08-11T11:26:37.801Z,1.80
2022-08-11T11:29:33.273Z,1.80
2022-08-11T11:32:20.592Z,2.00
2022-08-11T11:35:30.982Z,2.00
2022-08-11T11:38:04.055Z,2.10
2022-08-11T11:40:41.930Z,2.00
2022-08-11T11:43:23.623Z,1.90
2022-08-11T11:45:57.354Z,2.00
2022-08-11T11:48:28.422Z,1.90
2022-08-11T11:51:05.369Z,1.80
2022-08-11T11:53:40.683Z,2.00
2022-08-11T11:56:17.064Z,1.90
2022-08-11T11:59:11.288Z,1.80
2022-08-11T12:01:47.070Z,1.80
2022-08-11T12:04:26.123Z,1.80
2022-08-11T12:07:19.182Z,1.90
2022-08-11T12:09:51.042Z,2.00
2022-08-11T12:12:41.669Z,1.70
2022-08-11T12:15:13.967Z,1.90
2022-08-11T12:17:43.452Z,1.70
2022-08-11T12:20:31.708Z,1.90
2022-08-11T12:23:26.055Z,1.90
2022-08-11T12:26:27.032Z,2.00
2022-08-11T12:29:00.694Z,2.00
2022-08-11T12:31:32.433Z,2.00
2022-08-11T12:34:04.830Z,2.10
2022-08-11T12:36:36.360Z,1.90
2022-08-11T12:39:24.431Z,1.70
2022-08-11T12:45:22.030Z,1.90
2022-08-11T12:48:59.879Z,2.30
2022-08-11T12:51:24.818Z,1.90
2022-08-11T12:54:00.057Z,1.60
2022-08-11T12:56:56.757Z,2.00
2022-08-11T12:59:45.534Z,2.10
2022-08-11T13:02:39.999Z,2.20
2022-08-11T13:05:23.403Z,2.10
2022-08-11T13:07:53.867Z,1.90
2022-08-11T13:10:38.946Z,2.10
2022-08-11T13:13:52.486Z,2.00
2022-08-11T13:16:02.136Z,2.00
2022-08-11T13:18:31.845Z,2.00
2022-08-11T13:21:04.789Z,2.00
2022-08-11T13:23:35.295Z,2.20
2022-08-11T13:26:07.614Z,2.10
2022-08-11T13:28:38.069Z,1.90
2022-08-11T13:31:14.989Z,2.20
2022-08-11T13:33:51.219Z,1.90
2022-08-11T13:36:29.673Z,2.00
2022-08-11T13:39:05.401Z,2.10
2022-08-11T13:41:38.848Z,1.80
2022-08-11T13:44:15.810Z,2.00
2022-08-11T13:46:53.058Z,1.80
2022-08-11T13:49:27.701Z,2.20
2022-08-11T13:52:06.125Z,1.80
2022-08-11T13:54:38.804Z,1.70
2022-08-11T13:57:13.795Z,1.90
2022-08-11T14:00:13.223Z,1.90
2022-08-11T14:02:56.199Z,1.90
2022-08-11T14:05:29.916Z,1.80
2022-08-11T14:08:02.894Z,1.70
2022-08-11T14:10:36.741Z,1.90
2022-08-11T14:13:29.031Z,1.70
2022-08-11T14:16:19.800Z,1.90
2022-08-11T14:18:55.259Z,1.80
2022-08-11T14:21:56.200Z,1.80
2022-08-11T14:24:29.084Z,1.90
2022-08-11T14:27:02.402Z,1.80
2022-08-11T14:29:48.592Z,1.60
2022-08-11T14:32:20.616Z,2.00
2022-08-11T14:34:51.056Z,2.20
2022-08-11T14:37:23.891Z,1.70
2022-08-11T14:40:02.268Z,1.90
2022-08-11T14:42:51.428Z,1.90
2022-08-11T14:45:58.166Z,1.80
2022-08-11T14:48:26.940Z,1.60
2022-08-11T14:51:00.787Z,1.90
2022-08-11T14:53:32.512Z,2.10
2022-08-11T14:56:22.233Z,2.00
2022-08-11T14:58:52.390Z,1.80
2022-08-11T15:01:39.208Z,1.70
2022-08-11T15:07:02.752Z,1.60
2022-08-11T15:09:38.870Z,1.80
2022-08-11T15:12:32.169Z,1.60
2022-08-11T15:15:27.335Z,1.80
2022-08-11T15:17:59.728Z,1.70
2022-08-11T15:20:53.591Z,1.70
2022-08-11T15:23:46.132Z,1.90
2022-08-11T15:26:19.986Z,1.40
2022-08-11T15:29:23.616Z,1.80
2022-08-11T15:32:12.700Z,1.70
2022-08-11T15:35:03.953Z,1.90
2022-08-11T15:37:38.802Z,2.10
2022-08-11T15:40:36.507Z,2.00
2022-08-11T15:43:32.753Z,1.70
2022-08-11T15:46:11.121Z,2.20
2022-08-11T15:48:50.568Z,1.80
2022-08-11T15:51:31.675Z,2.30
2022-08-11T15:54:11.014Z,2.00
2022-08-11T15:56:43.690Z,1.70
2022-08-11T15:59:41.897Z,1.90
2022-08-11T16:02:35.632Z,1.60
2022-08-11T16:05:12.768Z,2.20
2022-08-11T16:10:21.293Z,2.40
2022-08-11T16:16:11.628Z,1.60
2022-08-11T16:18:51.767Z,1.80
2022-08-11T16:21:33.838Z,2.00
2022-08-11T16:24:08.302Z,2.10
2022-08-11T16:27:10.019Z,1.90
2022-08-11T16:29:43.926Z,1.90
2022-08-11T16:35:16.910Z,1.70
2022-08-11T16:38:07.705Z,1.80
2022-08-11T16:40:39.189Z,1.80
2022-08-11T16:43:34.296Z,2.00
2022-08-11T16:46:23.530Z,2.10
2022-08-11T16:49:00.883Z,1.90
2022-08-11T16:51:32.606Z,2.00
2022-08-11T16:54:10.137Z,2.00
2022-08-11T16:56:44.104Z,1.70
2022-08-11T16:59:22.130Z,1.80
2022-08-11T17:01:56.437Z,1.90
2022-08-11T17:05:00.021Z,2.00
2022-08-11T17:07:49.181Z,1.90
2022-08-11T17:10:53.286Z,2.00
2022-08-11T17:13:34.132Z,1.90
2022-08-11T17:16:22.266Z,2.20
2022-08-11T17:19:05.722Z,2.00
2022-08-11T17:21:57.916Z,2.10
2022-08-11T17:25:02.543Z,2.00
2022-08-11T17:27:48.128Z,2.10
2022-08-11T17:30:20.846Z,2.10
2022-08-11T17:33:12.272Z,1.90
2022-08-11T17:35:44.219Z,2.30
2022-08-11T17:38:17.261Z,2.10
2022-08-11T17:41:04.083Z,2.20
2022-08-11T17:43:52.433Z,2.40
2022-08-11T17:46:45.443Z,3.40
2022-08-11T17:49:19.808Z,2.90
2022-08-11T17:52:09.549Z,3.30
2022-08-11T17:54:59.816Z,3.20
2022-08-11T17:57:48.962Z,3.20
2022-08-11T18:00:19.460Z,3.00
2022-08-11T18:03:08.835Z,3.60
2022-08-11T18:05:44.433Z,3.30
2022-08-11T18:08:39.632Z,3.50
2022-08-11T18:12:06.811Z,3.60
2022-08-11T18:14:39.547Z,3.20
2022-08-11T18:17:28.947Z,3.70
2022-08-11T18:20:17.171Z,3.40
2022-08-11T18:23:09.263Z,3.80
2022-08-11T18:26:01.928Z,3.80
2022-08-11T18:29:14.425Z,3.50
2022-08-11T18:32:09.091Z,3.60
2022-08-11T18:35:05.542Z,3.50
2022-08-11T18:38:09.672Z,3.30
2022-08-11T18:40:57.883Z,3.90
2022-08-11T18:43:53.742Z,3.40
2022-08-11T18:46:43.328Z,4.00
2022-08-11T18:50:03.819Z,3.60
2022-08-11T18:52:49.104Z,3.40
2022-08-11T18:55:42.444Z,3.20
2022-08-11T18:58:39.989Z,2.90
2022-08-11T19:01:31.084Z,3.10
2022-08-11T19:04:21.225Z,2.80
2022-08-11T19:07:18.769Z,2.50
2022-08-11T19:10:09.649Z,2.30
2022-08-11T19:13:01.311Z,1.80
2022-08-11T19:15:51.192Z,1.70
2022-08-11T19:18:42.886Z,2.60
2022-08-11T19:21:33.781Z,2.00
2022-08-11T19:24:28.438Z,2.50
2022-08-11T19:27:18.339Z,2.30
2022-08-11T19:30:13.771Z,2.40
2022-08-11T19:33:03.563Z,2.40
2022-08-11T19:36:05.876Z,2.00
2022-08-11T19:38:57.560Z,2.10
2022-08-11T19:42:00.994Z,2.50
2022-08-11T19:44:57.281Z,2.00
2022-08-11T19:47:46.875Z,2.50
2022-08-11T19:50:38.786Z,2.00
2022-08-11T19:53:43.917Z,2.20
2022-08-11T19:56:48.753Z,2.20
2022-08-11T19:59:45.735Z,2.20
2022-08-11T20:02:35.105Z,1.70
2022-08-11T20:05:29.511Z,2.00
2022-08-11T20:08:30.460Z,2.20
2022-08-11T20:11:23.816Z,1.90
2022-08-11T20:14:16.779Z,1.90
2022-08-11T20:17:08.806Z,1.90
2022-08-11T20:22:59.461Z,2.00
2022-08-11T20:25:53.165Z,2.00
2022-08-11T20:28:47.117Z,2.10
2022-08-11T20:31:39.463Z,1.80
2022-08-11T20:34:33.413Z,2.00
2022-08-11T20:37:32.499Z,2.00
2022-08-11T20:40:23.845Z,2.20
2022-08-11T20:44:05.676Z,2.20
2022-08-11T20:46:34.819Z,2.00
2022-08-11T20:49:42.328Z,1.90
2022-08-11T20:52:49.083Z,2.00
2022-08-11T20:55:52.111Z,1.80
2022-08-11T21:01:54.342Z,2.30
2022-08-11T21:04:54.038Z,2.10
2022-08-11T21:07:56.830Z,2.40
2022-08-11T21:11:14.317Z,2.50
2022-08-11T21:14:23.285Z,2.40
2022-08-11T21:20:56.974Z,2.30
2022-08-11T21:24:13.151Z,2.20
2022-08-11T21:27:24.789Z,2.60
2022-08-11T21:30:35.490Z,2.50
2022-08-11T21:37:09.468Z,2.40
2022-08-11T21:40:18.728Z,2.30
2022-08-11T21:43:17.870Z,2.70
2022-08-11T21:49:05.996Z,2.60
2022-08-11T21:52:13.326Z,2.80
2022-08-11T21:55:01.542Z,2.50
2022-08-11T21:57:50.823Z,2.40
2022-08-11T22:00:38.487Z,2.70
2022-08-11T22:03:27.040Z,2.70
2022-08-11T22:06:19.257Z,2.60
2022-08-11T22:09:08.931Z,3.10
2022-08-11T22:12:29.621Z,2.80
2022-08-11T22:15:05.050Z,2.30
2022-08-11T22:17:57.881Z,2.70
2022-08-11T22:20:48.404Z,2.90
2022-08-11T22:23:37.711Z,2.30
2022-08-11T22:26:27.728Z,2.30
2022-08-11T22:29:14.919Z,2.60
2022-08-11T22:32:03.890Z,2.30
2022-08-11T22:34:53.752Z,2.20
2022-08-11T22:37:43.466Z,2.20
2022-08-11T22:40:48.511Z,1.90
2022-08-11T22:43:37.343Z,2.00
2022-08-11T22:46:25.864Z,2.20
2022-08-11T22:49:15.092Z,2.10
2022-08-11T22:52:03.995Z,2.10
2022-08-11T22:54:55.249Z,1.70
2022-08-11T22:58:00.176Z,2.30
2022-08-11T23:00:49.816Z,2.00
2022-08-11T23:03:38.711Z,2.10
2022-08-11T23:06:26.796Z,2.10
2022-08-11T23:09:15.023Z,2.20
2022-08-11T23:12:06.912Z,1.90
2022-08-11T23:14:59.458Z,2.10
2022-08-11T23:17:48.580Z,2.00
2022-08-11T23:20:42.199Z,2.00
2022-08-11T23:23:40.160Z,1.70
2022-08-11T23:26:29.484Z,1.70
2022-08-11T23:29:22.168Z,1.90
2022-08-11T23:32:11.702Z,1.90
2022-08-11T23:35:38.788Z,1.90
2022-08-11T23:38:11.630Z,1.90
2022-08-11T23:41:00.035Z,2.00
2022-08-11T23:43:49.958Z,2.10
2022-08-11T23:46:40.136Z,2.00
2022-08-11T23:49:29.936Z,1.90
2022-08-11T23:52:18.845Z,1.90
2022-08-11T23:55:08.701Z,1.80
2022-08-11T23:58:01.314Z,1.90
